Time;durP1;ratioP1;P1;durP2;ratioP2;P2;SDS_P1;SDS_P2;PMS_P1;PMS_P2;Temp;Humidity;BMP_temperature;BMP_pressure;BME280_temperature;BME280_humidity;BME280_pressure;Samples;Min_cycle;Max_cycle;Signal;HPM_P1;HPM_P2
2022/10/31 00:00:48;;;;;;;5.45;3.70;;;;;;;19.58;59.97;102007.72;5064459;28;20064;-64
2022/10/31 00:03:13;;;;;;;6.80;3.70;;;;;;;19.52;60.31;101996.66;5064611;28;20040;-65
2022/10/31 00:05:43;;;;;;;6.68;4.15;;;;;;;19.57;60.16;101999.75;5064504;28;20093;-65
2022/10/31 00:08:08;;;;;;;5.15;3.83;;;;;;;19.55;60.48;102002.63;5064103;28;20456;-64
2022/10/31 00:10:33;;;;;;;5.07;3.42;;;;;;;19.56;60.13;102001.63;5064468;28;20028;-66
2022/10/31 00:12:59;;;;;;;8.38;4.10;;;;;;;19.54;60.18;101995.53;5061593;28;20036;-64
2022/10/31 00:15:24;;;;;;;4.97;3.28;;;;;;;19.55;60.25;102002.63;5052251;28;20143;-65
2022/10/31 00:17:49;;;;;;;5.70;4.45;;;;;;;19.55;60.20;101999.91;5064226;28;20029;-65
2022/10/31 00:20:14;;;;;;;4.82;3.53;;;;;;;19.54;60.00;101998.22;5064439;28;20021;-65
2022/10/31 00:22:40;;;;;;;4.70;3.28;;;;;;;19.54;60.32;101997.34;5063858;28;20081;-64
2022/10/31 00:25:05;;;;;;;4.32;3.35;;;;;;;19.46;60.23;101990.00;5064400;28;20086;-65
2022/10/31 00:27:30;;;;;;;6.30;3.75;;;;;;;19.52;60.08;102002.91;5063974;28;20033;-64
2022/10/31 00:29:55;;;;;;;5.45;3.33;;;;;;;19.52;60.01;102011.00;5063915;28;20057;-65
2022/10/31 00:32:21;;;;;;;5.07;3.55;;;;;;;19.49;60.15;101998.63;5064030;28;20017;-65
2022/10/31 00:34:46;;;;;;;6.18;3.67;;;;;;;19.51;59.91;102009.31;5064043;28;20384;-66
2022/10/31 00:37:11;;;;;;;6.85;3.42;;;;;;;19.52;60.23;102002.06;5079697;28;20025;-65
2022/10/31 00:39:36;;;;;;;4.72;3.22;;;;;;;19.49;59.84;101997.78;5063125;28;20017;-64
2022/10/31 00:42:02;;;;;;;5.65;3.58;;;;;;;19.49;60.17;102001.34;5064005;28;20085;-65
2022/10/31 00:44:27;;;;;;;5.57;3.20;;;;;;;19.49;60.42;102004.03;5063860;28;20032;-64
2022/10/31 00:46:52;;;;;;;5.95;3.92;;;;;;;19.49;59.78;102012.13;5063737;28;20036;-64
2022/10/31 00:49:17;;;;;;;5.93;3.45;;;;;;;19.48;60.35;102005.03;5062392;28;20025;-65
2022/10/31 00:51:43;;;;;;;5.20;3.40;;;;;;;19.47;59.98;102008.75;5063799;28;20485;-65
2022/10/31 00:54:08;;;;;;;4.03;3.20;;;;;;;19.48;60.11;102013.13;5063360;28;20032;-65
2022/10/31 00:56:33;;;;;;;5.05;3.10;;;;;;;19.18;59.88;101968.34;5063817;28;20033;-64
2022/10/31 00:58:58;;;;;;;3.85;3.08;;;;;;;19.45;60.12;102016.13;5063193;28;20017;-64
2022/10/31 01:01:23;;;;;;;4.35;3.00;;;;;;;19.46;60.26;102017.84;5063544;28;20056;-64
2022/10/31 01:03:49;;;;;;;5.47;3.55;;;;;;;19.44;59.88;102014.41;5063217;28;20051;-64
2022/10/31 01:06:14;;;;;;;4.63;3.13;;;;;;;19.45;59.89;102017.97;5063326;28;20031;-64
2022/10/31 01:08:39;;;;;;;4.68;3.00;;;;;;;19.44;60.12;102027.91;5062820;28;20113;-63
2022/10/31 01:11:07;;;;;;;4.63;3.78;;;;;;;19.44;59.89;102019.81;5063544;28;20025;-65
2022/10/31 01:13:33;;;;;;;5.15;2.97;;;;;;;19.44;59.90;102018.97;5063386;28;20033;-65
2022/10/31 01:15:59;;;;;;;5.15;3.70;;;;;;;19.43;60.02;102025.34;5063605;28;20128;-65
2022/10/31 01:18:24;;;;;;;6.45;4.18;;;;;;;19.43;59.84;102036.16;5063461;28;20050;-64
2022/10/31 01:21:11;;;;;;;4.70;3.22;;;;;;;19.41;59.82;102027.34;5063681;28;20465;-64
2022/10/31 01:23:36;;;;;;;4.95;3.30;;;;;;;19.41;60.04;102030.03;5062977;28;20025;-65
2022/10/31 01:26:06;;;;;;;4.80;3.33;;;;;;;19.41;59.98;102027.34;5062255;28;20032;-64
2022/10/31 01:28:32;;;;;;;4.22;3.20;;;;;;;19.27;59.82;102009.75;5062877;28;20025;-65
2022/10/31 01:31:03;;;;;;;3.72;3.13;;;;;;;19.41;59.85;102035.41;5063507;28;20163;-65
2022/10/31 01:33:28;;;;;;;4.78;3.17;;;;;;;19.40;60.08;102034.56;5063858;28;20113;-65
2022/10/31 01:35:53;;;;;;;3.35;2.97;;;;;;;19.40;59.96;102028.34;5067552;28;20029;-65
2022/10/31 01:38:19;;;;;;;3.42;2.97;;;;;;;19.28;59.86;102011.47;5066484;28;20024;-65
2022/10/31 01:40:44;;;;;;;4.72;3.67;;;;;;;19.38;60.13;102024.94;5067515;28;20091;-65
2022/10/31 01:43:13;;;;;;;6.03;3.47;;;;;;;19.37;59.93;102024.09;5067121;28;20051;-65
2022/10/31 01:45:38;;;;;;;5.07;3.25;;;;;;;19.37;60.12;102021.41;5067406;28;20565;-65
2022/10/31 01:48:03;;;;;;;4.60;2.95;;;;;;;19.37;59.95;102026.78;5065809;28;20033;-65
2022/10/31 01:50:37;;;;;;;4.03;3.00;;;;;;;19.35;60.00;102019.84;5065819;28;20051;-65
2022/10/31 01:53:03;;;;;;;4.35;3.03;;;;;;;19.37;59.72;102020.53;5066575;28;20029;-65
2022/10/31 01:55:32;;;;;;;4.85;2.83;;;;;;;19.28;60.18;102006.06;5065900;28;20560;-65
2022/10/31 01:58:00;;;;;;;4.20;3.17;;;;;;;19.35;59.82;102003.66;5065445;28;20029;-65
2022/10/31 02:00:25;;;;;;;3.95;3.25;;;;;;;19.35;60.15;102006.34;5066709;28;20032;-65
2022/10/31 02:02:51;;;;;;;4.60;2.78;;;;;;;19.31;59.99;102005.78;5066839;28;20031;-65
2022/10/31 02:05:20;;;;;;;3.25;2.50;;;;;;;19.34;59.63;102013.59;5066906;28;20035;-65
2022/10/31 02:07:48;;;;;;;;;;;;;;;19.34;59.76;102013.59;5065350;28;20037;-65
2022/10/31 02:10:13;;;;;;;4.80;3.10;;;;;;;19.33;59.92;102014.59;5066905;28;19936;-66
2022/10/31 02:12:39;;;;;;;3.75;2.40;;;;;;;19.30;59.97;102014.03;5066585;28;20061;-65
2022/10/31 02:15:05;;;;;;;5.38;3.08;;;;;;;19.32;60.04;102012.03;5045524;28;20037;-65
2022/10/31 02:17:31;;;;;;;4.30;2.80;;;;;;;19.30;59.88;102008.63;5047005;28;20022;-65
2022/10/31 02:20:16;;;;;;;4.43;2.90;;;;;;;19.30;59.66;102011.34;5045393;28;20080;-65
2022/10/31 02:23:00;;;;;;;2.70;2.22;;;;;;;19.29;59.84;102013.19;5045187;28;20026;-65
2022/10/31 02:25:40;;;;;;;5.47;2.90;;;;;;;19.29;59.78;102013.19;5046624;28;20033;-65
2022/10/31 02:28:17;;;;;;;4.20;2.95;;;;;;;19.29;59.70;102009.63;5055156;28;20037;-65
2022/10/31 02:31:04;;;;;;;3.75;2.40;;;;;;;19.28;59.94;101999.81;5065187;28;20021;-65
2022/10/31 02:33:35;;;;;;;4.25;2.90;;;;;;;19.23;59.90;102000.25;5066328;28;20090;-64
2022/10/31 02:36:09;;;;;;;3.83;2.70;;;;;;;19.28;60.09;102013.31;5065154;28;20025;-64
2022/10/31 02:38:53;;;;;;;4.32;3.30;;;;;;;19.27;59.96;102020.56;5066222;28;20084;-65
2022/10/31 02:41:35;;;;;;;3.55;2.50;;;;;;;19.26;59.87;102013.47;5066484;28;20033;-65
2022/10/31 02:44:09;;;;;;;4.22;2.58;;;;;;;19.26;59.79;102016.16;5065955;28;20029;-65
2022/10/31 02:46:54;;;;;;;4.07;2.53;;;;;;;19.26;59.92;102018.84;5064900;28;20478;-65
2022/10/31 02:49:40;;;;;;;3.83;2.55;;;;;;;19.25;59.84;102019.00;5065960;28;20063;-66
2022/10/31 02:52:23;;;;;;;4.30;2.63;;;;;;;19.24;59.66;102010.03;5064800;28;20391;-64
2022/10/31 02:54:49;;;;;;;4.10;2.50;;;;;;;19.16;59.69;102001.84;5065704;28;20029;-65
2022/10/31 02:57:16;;;;;;;3.30;2.60;;;;;;;19.23;59.57;102013.75;5065345;28;20037;-65
2022/10/31 02:59:48;;;;;;;2.65;2.10;;;;;;;19.22;59.62;102010.19;5081065;28;20037;-65
2022/10/31 03:02:36;;;;;;;3.63;2.50;;;;;;;19.23;59.88;102008.34;5064466;28;20044;-65
2022/10/31 03:05:37;;;;;;;4.22;2.75;;;;;;;19.22;59.83;102010.19;5065913;28;20100;-65
2022/10/31 03:08:11;;;;;;;3.03;2.15;;;;;;;19.23;59.78;102008.34;5044219;28;20028;-65
2022/10/31 03:10:53;;;;;;;3.75;2.60;;;;;;;19.21;59.73;102011.19;5044562;28;20106;-65
2022/10/31 03:13:47;;;;;;;3.55;2.35;;;;;;;19.15;59.75;102000.13;5046482;28;20395;-65
2022/10/31 03:16:15;;;;;;;4.43;2.63;;;;;;;19.20;59.88;102011.34;5046022;28;20040;-65
2022/10/31 03:18:49;;;;;;;3.70;2.33;;;;;;;19.19;59.33;102007.78;5045410;28;20470;-66
2022/10/31 03:21:17;;;;;;;3.60;2.20;;;;;;;19.19;59.85;102012.31;5045626;28;20037;-65
2022/10/31 03:23:44;;;;;;;2.63;2.05;;;;;;;19.19;59.81;102015.03;5060590;28;20029;-65
2022/10/31 03:26:11;;;;;;;3.00;2.05;;;;;;;19.17;59.40;102009.78;5045523;28;20101;-66
2022/10/31 03:28:43;;;;;;;3.63;2.65;;;;;;;19.11;59.61;102002.25;5063340;28;20025;-65
2022/10/31 03:31:09;;;;;;;3.00;2.15;;;;;;;19.16;59.73;102010.78;5047432;28;20032;-66
2022/10/31 03:33:35;;;;;;;3.08;2.30;;;;;;;19.16;59.30;102015.34;5063709;28;20029;-66
2022/10/31 03:36:04;;;;;;;3.40;2.75;;;;;;;19.16;59.29;102013.47;5064174;28;20036;-66
2022/10/31 03:38:29;;;;;;;3.70;2.35;;;;;;;19.16;59.45;102009.94;5065004;28;20021;-66
2022/10/31 03:40:55;;;;;;;3.92;2.20;;;;;;;19.13;59.67;102008.38;5063972;28;20033;-65
2022/10/31 03:43:24;;;;;;;3.05;2.25;;;;;;;19.15;59.23;102008.22;5063640;28;20032;-65
2022/10/31 03:45:49;;;;;;;2.67;1.95;;;;;;;19.14;59.71;102007.38;5063688;28;20081;-65
2022/10/31 03:48:16;;;;;;;3.20;2.30;;;;;;;19.07;59.35;101998.13;5064659;28;20154;-66
2022/10/31 03:50:56;;;;;;;3.38;2.50;;;;;;;19.12;59.43;102003.97;5065076;28;20108;-66
2022/10/31 03:53:33;;;;;;;2.90;2.33;;;;;;;19.12;59.33;102014.75;5063429;28;20029;-66
2022/10/31 03:56:07;;;;;;;3.63;2.50;;;;;;;19.13;59.67;102015.59;5063269;28;20017;-66
2022/10/31 03:58:45;;;;;;;3.25;2.25;;;;;;;19.12;59.25;102019.31;5062980;28;20023;-66
2022/10/31 04:01:14;;;;;;;2.65;2.00;;;;;;;19.11;59.37;102017.56;5063488;28;20045;-66
2022/10/31 04:03:39;;;;;;;4.45;2.58;;;;;;;19.11;59.34;102014.88;5063221;28;20033;-66
2022/10/31 04:06:07;;;;;;;2.55;2.05;;;;;;;19.02;59.24;102003.13;5064336;28;20033;-66
2022/10/31 04:08:39;;;;;;;3.80;2.43;;;;;;;19.09;59.40;102006.94;5063157;28;20028;-66
2022/10/31 04:11:05;;;;;;;3.10;2.30;;;;;;;19.09;59.34;102019.59;5063372;28;20349;-66
2022/10/31 04:13:33;;;;;;;3.30;2.13;;;;;;;18.97;59.21;101995.47;5057186;28;20079;-66
2022/10/31 04:15:58;;;;;;;2.83;1.98;;;;;;;18.98;59.43;102007.09;5043232;28;20036;-65
2022/10/31 04:18:24;;;;;;;3.55;2.30;;;;;;;19.08;59.40;102017.88;5026317;28;20025;-64
2022/10/31 04:20:59;;;;;;;2.85;2.20;;;;;;;19.06;59.09;102020.72;5044387;28;20025;-65
2022/10/31 04:23:26;;;;;;;2.30;2.10;;;;;;;19.06;59.19;102020.72;5044120;28;20038;-65
2022/10/31 04:25:51;;;;;;;4.25;2.13;;;;;;;19.07;59.45;102029.63;5043052;28;20029;-65
2022/10/31 04:28:17;;;;;;;2.67;2.10;;;;;;;18.96;59.49;102012.63;5056095;28;20493;-65
2022/10/31 04:30:42;;;;;;;2.80;2.35;;;;;;;19.01;59.26;102012.19;5064045;28;20033;-64
2022/10/31 04:33:08;;;;;;;2.13;1.85;;;;;;;19.05;59.25;102016.31;5063787;28;20029;-65
2022/10/31 04:35:33;;;;;;;3.15;2.42;;;;;;;19.04;59.46;102011.06;5064261;28;20040;-65
2022/10/31 04:37:58;;;;;;;3.03;2.30;;;;;;;18.99;59.27;102011.50;5063958;28;20513;-66
2022/10/31 04:40:24;;;;;;;2.83;2.17;;;;;;;19.03;59.17;102020.13;5064111;28;20041;-66
2022/10/31 04:42:49;;;;;;;2.10;1.90;;;;;;;19.03;59.22;102017.44;5079184;28;20039;-65
2022/10/31 04:45:14;;;;;;;2.80;2.10;;;;;;;19.00;59.28;102012.34;5063856;28;20039;-65
2022/10/31 04:47:39;;;;;;;2.47;2.00;;;;;;;19.01;59.13;102017.59;5064029;28;20038;-64
2022/10/31 04:50:05;;;;;;;2.63;2.28;;;;;;;19.00;59.35;102021.28;5063533;28;20509;-65
2022/10/31 04:52:30;;;;;;;4.70;1.80;;;;;;;19.00;59.08;102025.84;5063641;28;20061;-64
2022/10/31 04:54:55;;;;;;;2.65;2.08;;;;;;;18.98;59.40;102021.41;5058958;28;20184;-63
2022/10/31 04:57:21;;;;;;;2.85;1.95;;;;;;;18.98;59.18;102021.41;5063323;28;20036;-64
2022/10/31 04:59:46;;;;;;;3.25;2.20;;;;;;;18.96;59.18;102015.31;5063461;28;20048;-65
2022/10/31 05:02:11;;;;;;;2.72;1.85;;;;;;;18.97;58.98;102017.03;5063765;28;20526;-65
2022/10/31 05:04:36;;;;;;;3.45;2.15;;;;;;;18.96;59.42;102018.03;5063313;28;20036;-65
2022/10/31 05:07:02;;;;;;;2.75;1.92;;;;;;;18.96;59.43;102007.25;5061156;28;20096;-66
2022/10/31 05:09:27;;;;;;;2.40;1.80;;;;;;;18.95;59.32;102010.94;5061181;28;20036;-66
2022/10/31 05:11:52;;;;;;;3.10;1.92;;;;;;;18.95;59.21;102004.69;5063726;28;20076;-65
2022/10/31 05:14:18;;;;;;;2.50;1.98;;;;;;;18.85;58.86;101979.59;5062511;28;20405;-65
2022/10/31 05:16:43;;;;;;;2.45;1.80;;;;;;;18.95;59.03;102000.16;5060924;28;20025;-65
2022/10/31 05:19:08;;;;;;;2.15;1.83;;;;;;;18.95;59.30;101993.91;5062786;28;20482;-65
2022/10/31 05:21:33;;;;;;;2.88;1.55;;;;;;;18.94;59.32;101990.34;5063008;28;20025;-66
2022/10/31 05:23:58;;;;;;;2.92;1.92;;;;;;;18.94;59.10;101990.34;5062677;28;20025;-66
2022/10/31 05:26:24;;;;;;;1.98;1.77;;;;;;;18.94;58.98;101984.97;5063155;28;20045;-66
2022/10/31 05:28:49;;;;;;;3.88;1.70;;;;;;;18.91;59.13;101982.56;5062734;28;20040;-66
2022/10/31 05:31:14;;;;;;;3.42;1.85;;;;;;;18.90;59.07;101972.78;5063236;28;20089;-66
2022/10/31 05:33:40;;;;;;;2.15;1.92;;;;;;;18.95;59.37;101991.22;5062676;28;20517;-66
2022/10/31 05:36:05;;;;;;;3.25;1.90;;;;;;;18.86;59.06;101974.06;5062978;28;20037;-65
2022/10/31 05:38:30;;;;;;;2.13;1.80;;;;;;;18.80;59.30;101963.84;5062296;28;20028;-66
2022/10/31 05:41:00;;;;;;;2.80;1.77;;;;;;;18.94;59.19;101989.50;5063058;28;20049;-66
2022/10/31 05:43:26;;;;;;;1.90;1.63;;;;;;;18.94;59.21;101986.81;5063344;28;20025;-66
2022/10/31 05:45:53;;;;;;;2.78;2.05;;;;;;;18.93;59.06;101996.75;5062751;28;20032;-66
2022/10/31 05:48:18;;;;;;;2.10;1.90;;;;;;;18.94;58.99;101992.19;5062574;28;20071;-66
2022/10/31 05:50:44;;;;;;;3.33;1.90;;;;;;;18.94;59.33;101992.19;5062923;28;20024;-66
2022/10/31 05:53:09;;;;;;;2.03;1.73;;;;;;;18.94;59.11;101982.25;5062077;28;20124;-65
2022/10/31 05:55:34;;;;;;;2.50;1.67;;;;;;;18.83;59.21;101968.97;5062650;28;20017;-67
2022/10/31 05:58:00;;;;;;;3.22;1.90;;;;;;;18.92;59.06;101984.25;5062860;28;20044;-68
2022/10/31 06:00:26;;;;;;;3.92;2.00;;;;;;;18.83;59.46;101962.72;5062650;28;20032;-67
2022/10/31 06:03:02;;;;;;;2.72;1.83;;;;;;;18.85;59.13;101976.88;5063138;28;20517;-67
2022/10/31 06:05:28;;;;;;;2.67;1.92;;;;;;;18.90;59.42;101985.38;5061906;28;20043;-67
2022/10/31 06:07:53;;;;;;;2.50;2.00;;;;;;;18.79;59.61;101967.53;5059763;28;20033;-68
2022/10/31 06:10:20;;;;;;;2.75;1.80;;;;;;;18.82;59.89;101983.44;5051602;28;20140;-68
2022/10/31 06:12:46;;;;;;;3.50;1.98;;;;;;;18.86;59.74;101983.97;5054003;28;20037;-67
2022/10/31 06:15:11;;;;;;;3.78;1.63;;;;;;;18.87;59.59;101983.00;5055088;28;20035;-67
2022/10/31 06:17:37;;;;;;;1.95;1.48;;;;;;;18.87;59.75;101993.78;5062312;28;20029;-67
2022/10/31 06:20:03;;;;;;;2.90;1.60;;;;;;;18.82;59.66;101983.44;5063681;28;20028;-67
2022/10/31 06:22:29;;;;;;;2.92;1.88;;;;;;;18.86;59.92;101990.25;5061571;28;20085;-67
2022/10/31 06:24:54;;;;;;;2.33;1.60;;;;;;;18.84;59.91;101980.59;5055579;28;20025;-67
2022/10/31 06:27:19;;;;;;;3.08;1.55;;;;;;;18.85;59.70;101993.91;5054500;28;20029;-66
2022/10/31 06:29:45;;;;;;;2.65;1.80;;;;;;;18.85;59.62;101996.59;5056340;28;20024;-67
2022/10/31 06:32:11;;;;;;;2.03;1.60;;;;;;;18.84;59.89;101991.34;5056250;28;20029;-68
2022/10/31 06:34:37;;;;;;;3.42;2.22;;;;;;;18.85;59.64;101988.50;5052589;28;20021;-66
2022/10/31 06:37:02;;;;;;;1.75;1.40;;;;;;;18.84;59.64;101986.81;5056001;28;20031;-67
2022/10/31 06:39:28;;;;;;;2.85;1.70;;;;;;;18.81;59.78;101975.47;5055830;28;20387;-66
2022/10/31 06:41:53;;;;;;;2.78;1.63;;;;;;;18.84;59.57;101986.81;5054879;28;20033;-66
2022/10/31 06:44:18;;;;;;;2.05;1.33;;;;;;;18.82;59.83;101979.84;5056061;28;20061;-66
2022/10/31 06:46:46;;;;;;;2.92;1.50;;;;;;;18.85;59.86;101988.50;5056004;28;20021;-67
2022/10/31 06:49:11;;;;;;;2.25;1.60;;;;;;;18.85;59.80;101993.06;5062279;28;20139;-66
2022/10/31 06:51:36;;;;;;;2.85;1.70;;;;;;;18.84;60.02;102000.28;5065667;28;20100;-67
2022/10/31 06:54:02;;;;;;;3.67;1.58;;;;;;;18.84;60.04;102002.97;5064687;28;20017;-67
2022/10/31 06:56:27;;;;;;;3.00;1.60;;;;;;;18.79;59.66;101981.00;5065537;28;20025;-67
2022/10/31 06:58:52;;;;;;;1.67;1.45;;;;;;;18.85;60.05;101995.75;5064854;28;20024;-67
2022/10/31 07:01:17;;;;;;;2.38;1.33;;;;;;;18.85;59.78;101998.44;5063930;28;20049;-67
2022/10/31 07:03:43;;;;;;;2.45;1.50;;;;;;;18.82;59.99;101994.22;5064950;28;20031;-67
2022/10/31 07:06:08;;;;;;;3.78;1.60;;;;;;;18.84;60.07;101994.91;5058340;28;20543;-68
2022/10/31 07:08:33;;;;;;;2.90;2.17;;;;;;;18.85;59.82;102006.53;5045209;28;20034;-67
2022/10/31 07:10:58;;;;;;;2.25;1.90;;;;;;;18.85;59.88;102001.97;5045674;28;20033;-68
2022/10/31 07:13:27;;;;;;;1.92;1.38;;;;;;;18.82;60.06;101996.91;5046158;28;20037;-68
2022/10/31 07:15:54;;;;;;;2.50;1.73;;;;;;;18.86;59.84;102011.78;5045523;28;20116;-68
2022/10/31 07:18:20;;;;;;;2.75;1.60;;;;;;;18.86;59.90;102005.53;5054642;28;20672;-67
2022/10/31 07:20:45;;;;;;;1.88;1.30;;;;;;;18.85;59.62;102010.06;5065413;28;20024;-67
2022/10/31 07:23:11;;;;;;;2.47;1.67;;;;;;;18.86;59.45;102022.56;5064874;28;20275;-64
2022/10/31 07:25:37;;;;;;;1.90;1.70;;;;;;;18.67;59.53;101974.88;5048649;28;20021;-57
2022/10/31 07:28:02;;;;;;;2.00;1.52;;;;;;;18.89;59.79;102010.63;5054305;28;20091;-58
2022/10/31 07:30:28;;;;;;;1.90;1.70;;;;;;;18.87;60.00;102007.25;5056865;28;20115;-64
2022/10/31 07:32:53;;;;;;;3.05;1.60;;;;;;;18.88;60.11;102001.72;5063844;28;20033;-63
2022/10/31 07:35:23;;;;;;;2.33;1.50;;;;;;;18.89;59.88;101999.88;5065201;28;20025;-63
2022/10/31 07:37:49;;;;;;;3.80;1.80;;;;;;;18.93;59.78;102004.81;5065258;28;20029;-63
2022/10/31 07:40:15;;;;;;;2.30;1.58;;;;;;;18.92;59.63;102002.28;5064116;28;20070;-63
2022/10/31 07:42:42;;;;;;;2.80;1.80;;;;;;;18.93;59.39;102004.81;5064510;28;20025;-64
2022/10/31 07:45:10;;;;;;;2.20;1.63;;;;;;;18.93;59.51;102007.53;5064118;28;20028;-64
2022/10/31 07:47:43;;;;;;;2.50;1.70;;;;;;;18.95;59.46;102004.69;5064534;28;20032;-64
2022/10/31 07:50:10;;;;;;;3.28;1.77;;;;;;;18.94;59.30;102014.59;5064117;28;20032;-64
2022/10/31 07:52:35;;;;;;;2.45;1.90;;;;;;;18.96;59.56;102004.53;5064930;28;20108;-64
2022/10/31 07:55:01;;;;;;;4.15;1.90;;;;;;;18.85;59.22;101983.13;5063596;28;20040;-63
2022/10/31 07:57:26;;;;;;;3.75;2.03;;;;;;;18.98;58.96;102007.94;5063070;28;20037;-64
2022/10/31 07:59:51;;;;;;;4.05;2.10;;;;;;;19.00;58.63;102004.28;5063744;28;20525;-63
2022/10/31 08:02:17;;;;;;;3.50;2.20;;;;;;;19.02;58.92;102004.97;5064198;28;20056;-65
2022/10/31 08:04:42;;;;;;;3.53;2.70;;;;;;;19.05;58.33;101999.28;5063704;28;20089;-63
2022/10/31 08:07:08;;;;;;;3.72;3.15;;;;;;;19.07;58.18;102000.84;5061404;28;20021;-63
2022/10/31 08:09:33;;;;;;;5.53;2.60;;;;;;;19.11;58.51;102006.78;5063671;28;20036;-62
2022/10/31 08:11:58;;;;;;;2.92;2.42;;;;;;;19.00;58.00;101988.94;5063314;28;20020;-65
2022/10/31 08:14:24;;;;;;;5.20;2.97;;;;;;;19.18;58.04;102010.63;5049521;28;20092;-65
2022/10/31 08:16:49;;;;;;;4.82;2.67;;;;;;;19.21;57.76;102013.06;5075087;28;20037;-65
2022/10/31 08:19:14;;;;;;;4.00;2.90;;;;;;;19.22;57.75;102006.66;5061926;28;20092;-64
2022/10/31 08:21:39;;;;;;;9.18;2.92;;;;;;;19.22;57.78;102017.44;5063926;28;20021;-65
2022/10/31 08:24:05;;;;;;;5.40;3.20;;;;;;;19.23;58.01;102016.44;5063369;28;20398;-65
2022/10/31 08:26:31;;;;;;;3.78;2.88;;;;;;;19.22;57.55;102012.03;5064289;28;20025;-65
2022/10/31 08:28:56;;;;;;;5.22;3.17;;;;;;;19.26;57.54;102020.69;5063516;28;20129;-65
2022/10/31 08:31:22;;;;;;;2.50;2.17;;;;;;;19.29;57.47;102021.28;5064127;28;20020;-65
2022/10/31 08:33:48;;;;;;;4.75;2.42;;;;;;;19.33;57.83;102021.84;5064088;28;20027;-65
2022/10/31 08:36:13;;;;;;;3.22;2.20;;;;;;;19.37;57.50;102031.31;5064026;28;20081;-65
2022/10/31 08:38:38;;;;;;;3.90;2.25;;;;;;;19.41;57.65;102022.81;5063578;28;20029;-64
2022/10/31 08:41:03;;;;;;;3.50;2.00;;;;;;;19.45;57.38;102018.84;5063919;28;20033;-66
2022/10/31 08:43:29;;;;;;;2.38;1.90;;;;;;;19.47;57.53;102019.53;5063697;28;20028;-65
2022/10/31 08:45:54;;;;;;;2.08;1.80;;;;;;;19.44;57.02;102011.72;5063774;28;20051;-65
2022/10/31 08:48:20;;;;;;;4.03;2.30;;;;;;;19.33;57.18;101987.63;5063490;28;20064;-65
2022/10/31 08:50:46;;;;;;;3.28;2.10;;;;;;;19.46;57.44;102008.91;5063826;28;20071;-65
2022/10/31 08:53:14;;;;;;;2.33;2.00;;;;;;;19.34;57.25;101996.56;5054580;28;20107;-65
2022/10/31 08:55:40;;;;;;;2.78;2.22;;;;;;;19.42;57.78;102016.41;5058375;28;20037;-64
2022/10/31 08:58:07;;;;;;;2.65;1.92;;;;;;;19.41;57.57;102008.44;5063267;28;20029;-65
2022/10/31 09:00:33;;;;;;;3.20;1.85;;;;;;;19.40;57.77;102007.59;5063321;28;20119;-64
2022/10/31 09:03:00;;;;;;;3.05;1.90;;;;;;;19.41;57.80;102005.75;5063378;28;20041;-65
2022/10/31 09:05:26;;;;;;;3.03;2.00;;;;;;;19.40;57.74;102004.06;5062878;28;20083;-66
2022/10/31 09:07:55;;;;;;;3.10;1.90;;;;;;;19.40;57.39;101995.97;5063608;28;20033;-65
2022/10/31 09:10:20;;;;;;;3.55;2.25;;;;;;;19.40;57.48;101991.44;5062003;28;20037;-66
2022/10/31 09:12:45;;;;;;;3.47;2.00;;;;;;;19.43;57.46;101995.69;5060483;28;20083;-63
2022/10/31 09:15:11;;;;;;;4.57;2.25;;;;;;;19.44;57.30;101992.00;5063229;28;20032;-65
2022/10/31 09:17:36;;;;;;;3.53;1.88;;;;;;;19.37;57.76;101983.66;5063436;28;20051;-66
2022/10/31 09:20:01;;;;;;;2.47;2.00;;;;;;;19.43;57.57;101998.38;5062658;28;20127;-66
2022/10/31 09:22:27;;;;;;;2.92;2.05;;;;;;;19.43;57.73;102001.09;5063329;28;20036;-64
2022/10/31 09:24:52;;;;;;;2.88;2.03;;;;;;;19.42;57.52;101999.38;5062749;28;20032;-64
2022/10/31 09:27:17;;;;;;;4.00;2.33;;;;;;;19.45;57.47;102001.78;5063040;28;20033;-65
2022/10/31 09:29:42;;;;;;;2.40;1.92;;;;;;;19.45;57.63;101994.56;5062690;28;20024;-66
2022/10/31 09:32:07;;;;;;;2.22;1.90;;;;;;;19.47;57.46;101986.31;5062393;28;20047;-65
2022/10/31 09:34:33;;;;;;;3.65;2.13;;;;;;;19.49;57.66;101992.41;5062646;28;20036;-65
2022/10/31 09:36:58;;;;;;;4.07;1.95;;;;;;;19.48;57.38;101980.75;5063165;28;20025;-65
2022/10/31 09:39:23;;;;;;;4.50;2.05;;;;;;;19.42;57.44;101975.97;5062460;28;20021;-64
2022/10/31 09:42:04;;;;;;;4.53;2.05;;;;;;;19.50;57.51;101983.34;5063086;28;20056;-65
2022/10/31 09:44:46;;;;;;;2.60;1.90;;;;;;;19.49;57.56;101978.91;5062789;28;20397;-64
2022/10/31 09:47:22;;;;;;;2.75;1.88;;;;;;;19.53;57.32;101979.47;5062939;28;20025;-65
2022/10/31 09:50:02;;;;;;;2.45;1.60;;;;;;;19.53;57.71;101977.63;5061231;28;20060;-66
2022/10/31 09:52:33;;;;;;;2.35;2.08;;;;;;;19.54;57.50;101976.66;5061782;28;20048;-65
2022/10/31 09:55:04;;;;;;;3.05;2.28;;;;;;;19.56;57.39;101971.94;5064059;28;20032;-65
2022/10/31 09:57:33;;;;;;;2.38;1.70;;;;;;;19.52;57.56;101965.13;5048165;28;20033;-65
2022/10/31 09:59:59;;;;;;;3.33;2.17;;;;;;;19.60;57.55;101977.91;5045525;28;20029;-65
2022/10/31 10:02:34;;;;;;;2.53;2.00;;;;;;;19.62;57.40;101965.13;5046735;28;20853;-65
2022/10/31 10:05:05;;;;;;;2.58;2.17;;;;;;;19.55;57.30;101948.66;5046486;28;20034;-66
2022/10/31 10:07:54;;;;;;;2.92;2.15;;;;;;;19.63;57.31;101947.97;5064165;28;20053;-65
2022/10/31 10:10:32;;;;;;;2.95;2.17;;;;;;;19.65;57.22;101932.47;5066132;28;20076;-65
2022/10/31 10:13:32;;;;;;;3.47;1.63;;;;;;;19.65;57.40;101929.78;5063916;28;20108;-65
2022/10/31 10:16:14;;;;;;;3.08;2.22;;;;;;;19.66;57.15;101935.00;5045229;28;20040;-66
2022/10/31 10:19:10;;;;;;;2.80;2.25;;;;;;;19.66;57.21;101940.41;5062779;28;20064;-65
2022/10/31 10:21:56;;;;;;;1.95;1.73;;;;;;;19.67;57.41;101943.97;5066366;28;20044;-65
2022/10/31 10:24:49;;;;;;;2.80;1.92;;;;;;;19.68;57.64;101948.38;5065999;28;20053;-65
2022/10/31 10:27:27;;;;;;;3.00;1.98;;;;;;;19.68;57.35;101934.88;5066280;28;20032;-65
2022/10/31 10:29:58;;;;;;;2.85;1.73;;;;;;;19.68;57.28;101924.94;5064658;28;20055;-64
2022/10/31 10:32:26;;;;;;;1.95;1.65;;;;;;;19.54;57.26;101893.03;5056836;28;20033;-66
2022/10/31 10:34:55;;;;;;;4.55;2.13;;;;;;;19.46;57.47;101880.28;5044493;28;20030;-66
2022/10/31 10:37:25;;;;;;;2.65;2.08;;;;;;;19.74;57.05;101920.78;5044864;28;20032;-65
2022/10/31 10:39:55;;;;;;;2.50;1.80;;;;;;;19.76;57.07;101921.50;5044543;28;20013;-66
2022/10/31 10:48:10;;;;;;;2.47;1.70;;;;;;;19.74;57.56;101923.47;5058233;28;20032;-64
2022/10/31 10:50:40;;;;;;;2.53;2.17;;;;;;;19.72;57.43;101920.94;5064294;28;20055;-65
2022/10/31 10:53:21;;;;;;;1.95;1.70;;;;;;;19.71;57.31;101921.94;5063918;28;20659;-64
2022/10/31 10:55:58;;;;;;;2.72;1.92;;;;;;;19.71;57.69;101900.34;5065191;28;20025;-65
2022/10/31 10:58:23;;;;;;;2.13;1.50;;;;;;;19.69;57.72;101890.69;5063881;28;20041;-64
2022/10/31 11:00:49;;;;;;;2.30;1.70;;;;;;;19.69;57.45;101909.59;5065286;28;20044;-63
2022/10/31 11:03:16;;;;;;;2.92;1.98;;;;;;;19.68;57.87;101916.84;5065981;28;20037;-64
2022/10/31 11:05:54;;;;;;;2.05;1.67;;;;;;;19.64;57.68;101899.25;5064617;28;20112;-64
2022/10/31 11:08:38;;;;;;;2.28;1.75;;;;;;;19.67;57.71;101901.66;5064082;28;20057;-63
2022/10/31 11:11:08;;;;;;;2.33;1.70;;;;;;;19.67;57.72;101898.09;5065337;28;20032;-64
2022/10/31 11:13:34;;;;;;;2.35;1.80;;;;;;;19.57;57.35;101870.28;5056873;28;20056;-64
2022/10/31 11:16:04;;;;;;;2.83;1.77;;;;;;;19.63;57.78;101881.38;5045442;28;20501;-64
2022/10/31 11:18:37;;;;;;;2.03;1.77;;;;;;;19.64;57.57;101866.88;5062270;28;20039;-64
2022/10/31 11:21:04;;;;;;;2.63;2.10;;;;;;;19.63;58.01;101843.59;5065438;28;20505;-64
2022/10/31 11:23:30;;;;;;;1.95;1.50;;;;;;;19.63;57.82;101857.09;5063586;28;20584;-64
2022/10/31 11:25:56;;;;;;;2.05;1.67;;;;;;;19.62;57.73;101846.41;5065389;28;20024;-64
2022/10/31 11:28:22;;;;;;;2.40;1.92;;;;;;;19.62;57.98;101811.34;5064713;28;20110;-64
2022/10/31 11:30:53;;;;;;;2.42;1.90;;;;;;;19.35;57.63;101769.88;5065240;28;20028;-64
2022/10/31 11:33:32;;;;;;;2.20;1.80;;;;;;;19.66;57.50;101824.38;5063682;28;20025;-64
2022/10/31 11:35:57;;;;;;;2.38;1.70;;;;;;;19.72;57.57;101831.03;5065274;28;20029;-64